logo
Rechercher aéroport 
image banner adimage banner adimage banner ad
image banner ad

EYIG - Ignalina

Situé à Ignalina, Lithuania

ICAO - , IATA -

Données fournies par Airmate  

Information générale

Coordonnées: N55°14'39" E26°10'20"
Élévation : 558 feet MSL.
Variation magnétique : 8° East
Voir autres Aéroports à Utena County

Données opérationnelles

Special qualification required
Heure actuelle UTC:
Heure actuelle locale:
Météo à : - ( 0 km )
METAR: KRSV 171644Z AUTO 18008KT 10SM CLR 31/23 A3005 RMK AO2 TSNO
Voir NOTAMs / SUP AIP / TFR affectant cet aéroport [VIEW]
Fréquences de communication: [VIEW]

Pistes:

Identifiant RWYQFULongueur (ft)Largeur (ft)SurfaceLDA (ft)
0782°1969131GRASS
25262°1969131GRASS

Coordonnées de l'aéroport

Adresse: Ignalina Lithuania

Vue satellite de EYIG